Time;durP1;ratioP1;P1;durP2;ratioP2;P2;SDS_P1;SDS_P2;PMS_P1;PMS_P2;Temp;Humidity;BMP_temperature;BMP_pressure;BME280_temperature;BME280_humidity;BME280_pressure;Samples;Min_cycle;Max_cycle;Signal;HPM_P1;HPM_P2
2022/11/05 00:09:30;;;;;;;;;;;8.60;99.90;;;;;;5008677;28;20020;-62
2022/11/05 00:17:27;;;;;;;;;;;8.50;99.90;;;;;;5005813;28;20382;-62
2022/11/05 00:19:53;;;;;;;;;;;8.50;99.90;;;;;;5009548;28;19935;-62
2022/11/05 00:25:15;;;;;;;;;;;8.40;99.90;;;;;;5006220;28;19929;-62
2022/11/05 00:27:45;;;;;;;;;;;8.40;99.90;;;;;;5007531;28;19936;-62
2022/11/05 00:30:15;;;;;;;;;;;8.30;99.90;;;;;;5004938;28;19935;-62
2022/11/05 00:32:42;;;;;;;;;;;8.40;99.90;;;;;;5005701;28;19965;-62
2022/11/05 00:35:09;;;;;;;;;;;8.40;99.90;;;;;;5004291;28;20079;-61
2022/11/05 00:37:35;;;;;;;;;;;8.30;99.90;;;;;;5004741;28;19956;-61
2022/11/05 00:40:04;;;;;;;;;;;8.30;99.90;;;;;;5003361;28;19982;-62
2022/11/05 00:45:17;;;;;;;;;;;8.30;99.90;;;;;;5004968;28;19937;-62
2022/11/05 00:50:28;;;;;;;;;;;8.40;99.90;;;;;;5003538;28;19930;-61
2022/11/05 00:52:55;;;;;;;;;;;8.40;99.90;;;;;;5006127;28;19940;-62
2022/11/05 00:55:22;;;;;;;;;;;8.40;99.90;;;;;;5004404;28;19937;-62
2022/11/05 00:57:48;;;;;;;;;;;8.50;99.90;;;;;;5007460;28;19929;-61
2022/11/05 01:00:17;;;;;;;;;;;8.50;99.90;;;;;;5005103;28;20348;-62
2022/11/05 01:02:43;;;;;;;;;;;8.50;99.90;;;;;;5007334;28;20397;-62
2022/11/05 01:05:10;;;;;;;;;;;8.50;99.90;;;;;;5006448;28;19934;-63
2022/11/05 01:07:37;;;;;;;;;;;8.50;99.90;;;;;;5008477;28;19929;-62
2022/11/05 01:10:04;;;;;;;;;;;8.50;99.90;;;;;;5004897;28;20369;-62
2022/11/05 01:12:30;;;;;;;;;;;8.40;99.90;;;;;;5003614;28;21618;-62
2022/11/05 01:14:57;;;;;;;;;;;8.50;99.90;;;;;;5004728;28;19981;-62
2022/11/05 01:17:25;;;;;;;;;;;8.40;99.90;;;;;;5003918;28;20419;-62
2022/11/05 01:19:52;;;;;;;;;;;8.40;99.90;;;;;;5003379;28;19929;-62
2022/11/05 01:22:18;;;;;;;;;;;8.40;99.90;;;;;;5003161;28;20032;-62
2022/11/05 01:24:45;;;;;;;;;;;8.40;99.90;;;;;;5005799;28;21156;-62
2022/11/05 01:27:12;;;;;;;;;;;8.40;99.90;;;;;;5005269;28;19936;-62
2022/11/05 01:29:38;;;;;;;;;;;8.40;99.90;;;;;;5007280;28;19930;-62
2022/11/05 01:32:05;;;;;;;;;;;8.40;99.90;;;;;;5006296;28;20831;-62
2022/11/05 01:34:33;;;;;;;;;;;8.40;99.90;;;;;;5005839;28;19929;-62
2022/11/05 01:37:00;;;;;;;;;;;8.40;99.90;;;;;;5006624;28;19935;-62
2022/11/05 01:39:26;;;;;;;;;;;8.30;99.90;;;;;;5007492;28;19929;-62
2022/11/05 01:41:53;;;;;;;;;;;8.30;99.90;;;;;;5006062;28;19934;-62
2022/11/05 01:44:38;;;;;;;;;;;8.30;99.90;;;;;;5005839;28;20422;-63
2022/11/05 01:47:05;;;;;;;;;;;8.30;99.90;;;;;;5004823;28;19929;-62
2022/11/05 01:49:34;;;;;;;;;;;8.30;99.90;;;;;;5005627;28;19929;-62
2022/11/05 01:52:02;;;;;;;;;;;8.30;99.90;;;;;;5008884;28;19933;-62
2022/11/05 01:54:29;;;;;;;;;;;8.30;99.90;;;;;;5008381;28;19936;-62
2022/11/05 01:56:57;;;;;;;;;;;8.20;99.90;;;;;;5008850;28;19930;-62
2022/11/05 01:59:28;;;;;;;;;;;8.30;99.90;;;;;;5011205;28;19933;-62
2022/11/05 02:01:54;;;;;;;;;;;8.20;99.90;;;;;;5010194;28;19933;-60
2022/11/05 02:04:26;;;;;;;;;;;8.30;99.90;;;;;;5008261;28;19929;-62
2022/11/05 02:06:54;;;;;;;;;;;8.20;99.90;;;;;;5006334;28;20431;-62
2022/11/05 02:09:22;;;;;;;;;;;8.20;99.90;;;;;;5010351;28;19929;-62
2022/11/05 02:11:49;;;;;;;;;;;8.20;99.90;;;;;;5011505;28;19967;-62
2022/11/05 02:14:17;;;;;;;;;;;8.30;99.90;;;;;;5008699;28;19990;-62
2022/11/05 02:16:46;;;;;;;;;;;8.20;99.90;;;;;;5010657;28;19933;-62
2022/11/05 02:19:20;;;;;;;;;;;8.20;99.90;;;;;;5009851;28;19929;-62
2022/11/05 02:21:58;;;;;;;;;;;8.20;99.90;;;;;;5008048;28;21987;-62
2022/11/05 02:24:35;;;;;;;;;;;8.30;99.90;;;;;;5011179;28;19929;-62
2022/11/05 02:27:07;;;;;;;;;;;8.20;99.90;;;;;;5006308;28;22190;-61
2022/11/05 02:29:51;;;;;;;;;;;8.30;99.90;;;;;;5010951;28;19937;-61
2022/11/05 02:32:23;;;;;;;;;;;8.20;99.90;;;;;;5009099;28;19941;-62
2022/11/05 02:34:54;;;;;;;;;;;8.20;99.90;;;;;;5009475;28;21007;-61
2022/11/05 02:37:25;;;;;;;;;;;8.20;99.90;;;;;;5008626;28;19929;-62
2022/11/05 02:39:56;;;;;;;;;;;8.30;99.90;;;;;;5010024;28;19996;-62
2022/11/05 02:42:27;;;;;;;;;;;8.20;99.90;;;;;;5009825;28;19941;-62
2022/11/05 02:44:57;;;;;;;;;;;8.30;99.90;;;;;;5007977;28;20116;-62
2022/11/05 02:47:28;;;;;;;;;;;8.30;99.90;;;;;;5009597;28;19930;-62
2022/11/05 02:50:00;;;;;;;;;;;8.30;99.90;;;;;;5008119;28;19930;-62
2022/11/05 02:52:29;;;;;;;;;;;8.30;99.90;;;;;;5000727;28;19933;-62
2022/11/05 02:54:58;;;;;;;;;;;8.30;99.90;;;;;;4991812;28;19929;-62
2022/11/05 02:57:28;;;;;;;;;;;8.20;99.90;;;;;;4993160;28;19929;-62
2022/11/05 03:00:01;;;;;;;;;;;8.20;99.90;;;;;;4993019;28;19930;-62
2022/11/05 03:02:29;;;;;;;;;;;8.20;99.90;;;;;;4992310;28;19933;-62
2022/11/05 03:04:56;;;;;;;;;;;8.20;99.90;;;;;;4989793;28;19929;-62
2022/11/05 03:07:28;;;;;;;;;;;8.20;99.90;;;;;;4991899;28;20360;-62
2022/11/05 03:10:09;;;;;;;;;;;8.10;99.90;;;;;;4995125;28;19929;-62
2022/11/05 03:12:39;;;;;;;;;;;8.10;99.90;;;;;;4992846;28;19933;-62
2022/11/05 03:15:11;;;;;;;;;;;8.10;99.90;;;;;;4994024;28;20008;-62
2022/11/05 03:17:43;;;;;;;;;;;8.10;99.90;;;;;;4992739;28;20389;-62
2022/11/05 03:20:15;;;;;;;;;;;8.10;99.90;;;;;;4993479;28;20385;-62
2022/11/05 03:22:43;;;;;;;;;;;8.10;99.90;;;;;;4991945;28;19934;-62
2022/11/05 03:25:12;;;;;;;;;;;8.00;99.90;;;;;;4993173;28;19930;-62
2022/11/05 03:27:41;;;;;;;;;;;8.00;99.90;;;;;;4992011;28;19938;-62
2022/11/05 03:30:09;;;;;;;;;;;8.00;99.90;;;;;;4991769;28;19930;-62
2022/11/05 03:32:39;;;;;;;;;;;8.00;99.90;;;;;;4993443;28;19934;-62
2022/11/05 03:35:08;;;;;;;;;;;8.00;99.90;;;;;;4991777;28;19935;-62
2022/11/05 03:37:37;;;;;;;;;;;8.10;99.90;;;;;;4992700;28;19981;-62
2022/11/05 03:40:06;;;;;;;;;;;8.10;99.90;;;;;;4994049;28;19930;-61
2022/11/05 03:42:33;;;;;;;;;;;8.10;99.90;;;;;;4991145;28;20480;-62
2022/11/05 03:45:02;;;;;;;;;;;8.20;99.90;;;;;;4992546;28;19929;-62
2022/11/05 03:47:31;;;;;;;;;;;8.20;99.90;;;;;;4993536;28;19936;-62
2022/11/05 03:50:00;;;;;;;;;;;8.20;99.90;;;;;;4991668;28;21655;-62
2022/11/05 03:52:31;;;;;;;;;;;8.30;99.90;;;;;;4987833;28;19933;-62
2022/11/05 03:54:58;;;;;;;;;;;8.30;99.90;;;;;;4984691;28;19933;-61
2022/11/05 03:57:26;;;;;;;;;;;8.40;99.90;;;;;;4980913;28;19930;-61
2022/11/05 03:59:53;;;;;;;;;;;8.40;99.90;;;;;;4985064;28;19929;-62
2022/11/05 04:02:21;;;;;;;;;;;8.40;99.90;;;;;;4984350;28;19934;-61
2022/11/05 04:04:48;;;;;;;;;;;8.40;99.90;;;;;;4985973;28;19930;-61
2022/11/05 04:15:29;;;;;;;;;;;8.50;99.90;;;;;;4983039;28;21600;-61
2022/11/05 04:17:57;;;;;;;;;;;8.50;99.90;;;;;;4985950;28;19929;-62
2022/11/05 04:25:55;;;;;;;;;;;8.60;99.90;;;;;;4984300;28;19929;-62
2022/11/05 04:30:17;;;;;;;;;;;8.60;99.90;;;;;;4981630;28;19999;-62
2022/11/05 04:31:07;;;;;;;;;;;8.60;99.90;;;;;;4983891;28;19937;-62
2022/11/05 04:33:34;;;;;;;;;;;8.60;99.90;;;;;;4982989;28;21249;-62
2022/11/05 04:36:00;;;;;;;;;;;8.60;99.90;;;;;;4984325;28;20444;-62
2022/11/05 04:38:27;;;;;;;;;;;8.60;99.90;;;;;;4983411;28;19937;-62
2022/11/05 04:41:11;;;;;;;;;;;8.50;99.90;;;;;;4983887;28;21869;-62
2022/11/05 04:43:38;;;;;;;;;;;8.50;99.90;;;;;;4983546;28;20887;-62
2022/11/05 04:46:05;;;;;;;;;;;8.40;99.90;;;;;;4982538;28;19936;-62
2022/11/05 04:48:31;;;;;;;;;;;8.40;99.90;;;;;;4982210;28;19940;-62
2022/11/05 04:50:58;;;;;;;;;;;8.40;99.90;;;;;;4984064;28;19936;-62
2022/11/05 04:53:25;;;;;;;;;;;8.40;99.90;;;;;;4988692;28;19934;-62
2022/11/05 04:55:51;;;;;;;;;;;8.40;99.90;;;;;;4990270;28;19930;-62
2022/11/05 04:58:20;;;;;;;;;;;8.40;99.90;;;;;;4991387;28;19929;-62
2022/11/05 05:00:49;;;;;;;;;;;8.40;99.90;;;;;;4992148;28;19929;-62
2022/11/05 05:03:15;;;;;;;;;;;8.40;99.90;;;;;;4989467;28;19934;-62
2022/11/05 05:05:42;;;;;;;;;;;8.40;99.90;;;;;;4990921;28;19937;-62
2022/11/05 05:08:08;;;;;;;;;;;8.40;99.90;;;;;;4990844;28;19930;-62
2022/11/05 05:10:35;;;;;;;;;;;8.40;99.90;;;;;;4990917;28;20020;-62
2022/11/05 05:13:02;;;;;;;;;;;8.40;99.90;;;;;;4991331;28;19933;-62
2022/11/05 05:15:30;;;;;;;;;;;8.40;99.90;;;;;;4991923;28;19929;-62
2022/11/05 05:17:56;;;;;;;;;;;8.30;99.90;;;;;;4990725;28;20392;-62
2022/11/05 05:23:07;;;;;;;;;;;8.30;99.90;;;;;;4989847;28;19933;-61
2022/11/05 05:25:34;;;;;;;;;;;8.30;99.90;;;;;;4992357;28;19973;-62
2022/11/05 05:28:01;;;;;;;;;;;8.30;99.90;;;;;;4993899;28;20641;-62
2022/11/05 05:30:27;;;;;;;;;;;8.30;99.90;;;;;;4996067;28;19936;-62
2022/11/05 05:32:55;;;;;;;;;;;8.30;99.90;;;;;;4994808;28;19941;-62
2022/11/05 05:35:22;;;;;;;;;;;8.30;99.90;;;;;;4994587;28;19929;-62
2022/11/05 05:37:49;;;;;;;;;;;8.30;99.90;;;;;;4994260;28;20008;-61
2022/11/05 05:40:15;;;;;;;;;;;8.30;99.90;;;;;;4994478;28;19930;-62
2022/11/05 05:42:42;;;;;;;;;;;8.30;99.90;;;;;;4994083;28;21532;-62
2022/11/05 05:45:09;;;;;;;;;;;8.30;99.90;;;;;;4994770;28;19930;-61
2022/11/05 05:47:36;;;;;;;;;;;8.30;99.90;;;;;;4992762;28;19972;-61
2022/11/05 05:50:04;;;;;;;;;;;8.30;99.90;;;;;;4993721;28;19930;-62
2022/11/05 05:52:31;;;;;;;;;;;8.30;99.90;;;;;;4998869;28;19934;-62
2022/11/05 05:54:58;;;;;;;;;;;8.30;99.90;;;;;;5003132;28;19933;-62
2022/11/05 05:57:25;;;;;;;;;;;8.20;99.90;;;;;;5007471;28;20056;-62
2022/11/05 05:59:51;;;;;;;;;;;8.20;99.90;;;;;;5005152;28;20513;-61
2022/11/05 06:02:18;;;;;;;;;;;8.20;99.90;;;;;;5005297;28;19934;-62
2022/11/05 06:04:44;;;;;;;;;;;8.20;99.90;;;;;;5002913;28;19936;-61
2022/11/05 06:07:12;;;;;;;;;;;8.20;99.90;;;;;;5005550;28;19936;-61
2022/11/05 06:09:39;;;;;;;;;;;8.20;99.90;;;;;;5004870;28;20567;-61
2022/11/05 06:12:06;;;;;;;;;;;8.20;99.90;;;;;;5005647;28;21521;-62
2022/11/05 06:14:33;;;;;;;;;;;8.20;99.90;;;;;;4999775;28;19936;-61
2022/11/05 06:16:59;;;;;;;;;;;8.30;99.90;;;;;;5000764;28;19936;-61
2022/11/05 06:19:26;;;;;;;;;;;8.20;99.90;;;;;;5002424;28;19929;-62
2022/11/05 06:21:53;;;;;;;;;;;8.20;99.90;;;;;;5000306;28;19937;-61
2022/11/05 06:24:21;;;;;;;;;;;8.20;99.90;;;;;;5001181;28;19934;-62
2022/11/05 06:26:47;;;;;;;;;;;8.20;99.90;;;;;;5000202;28;19930;-62
2022/11/05 06:29:14;;;;;;;;;;;8.20;99.90;;;;;;5003208;28;20540;-62
2022/11/05 06:31:41;;;;;;;;;;;8.20;99.90;;;;;;4996253;28;19940;-61
2022/11/05 06:34:07;;;;;;;;;;;8.20;99.90;;;;;;4996717;28;19940;-62
2022/11/05 06:36:34;;;;;;;;;;;8.20;99.90;;;;;;4984577;28;20442;-61
2022/11/05 06:39:01;;;;;;;;;;;8.10;99.90;;;;;;4984102;28;20465;-61
2022/11/05 06:41:29;;;;;;;;;;;8.10;99.90;;;;;;4999706;28;20382;-62
2022/11/05 06:43:55;;;;;;;;;;;8.10;99.90;;;;;;4999626;28;19929;-62
2022/11/05 06:46:22;;;;;;;;;;;8.10;99.90;;;;;;5000352;28;19945;-62
2022/11/05 06:48:49;;;;;;;;;;;8.10;99.90;;;;;;5002268;28;19940;-61
2022/11/05 06:51:16;;;;;;;;;;;8.10;99.90;;;;;;4995868;28;20008;-62
2022/11/05 06:53:43;;;;;;;;;;;8.10;99.90;;;;;;5006558;28;19929;-61
2022/11/05 06:56:09;;;;;;;;;;;8.10;99.90;;;;;;5006751;28;19933;-61
2022/11/05 06:58:37;;;;;;;;;;;8.10;99.90;;;;;;5008469;28;20422;-61
2022/11/05 07:01:06;;;;;;;;;;;8.20;99.90;;;;;;5009215;28;19934;-62
2022/11/05 07:03:33;;;;;;;;;;;8.20;99.90;;;;;;5006855;28;20360;-57
2022/11/05 07:06:00;;;;;;;;;;;8.20;99.90;;;;;;5007779;28;20485;-57
2022/11/05 07:08:27;;;;;;;;;;;8.30;99.90;;;;;;5005465;28;20317;-57
2022/11/05 07:10:54;;;;;;;;;;;8.30;99.90;;;;;;5007629;28;19934;-57
2022/11/05 07:13:20;;;;;;;;;;;8.30;99.90;;;;;;5006970;28;19929;-57
2022/11/05 07:15:48;;;;;;;;;;;8.40;99.90;;;;;;5009054;28;19929;-57
2022/11/05 07:18:15;;;;;;;;;;;8.40;99.90;;;;;;5010319;28;19935;-57
2022/11/05 07:20:42;;;;;;;;;;;8.50;99.90;;;;;;5008975;28;19966;-57
2022/11/05 07:23:10;;;;;;;;;;;8.50;99.90;;;;;;5009149;28;20028;-57
2022/11/05 07:25:37;;;;;;;;;;;8.50;99.90;;;;;;5008948;28;20238;-57
2022/11/05 07:28:04;;;;;;;;;;;8.50;99.90;;;;;;5007950;28;19929;-57
2022/11/05 07:30:31;;;;;;;;;;;8.50;99.90;;;;;;5007086;28;20800;-57
2022/11/05 07:32:59;;;;;;;;;;;8.60;99.90;;;;;;5010065;28;19935;-57
2022/11/05 07:35:26;;;;;;;;;;;8.60;99.90;;;;;;5008072;28;20020;-57
2022/11/05 07:37:54;;;;;;;;;;;8.70;99.90;;;;;;5007424;28;19935;-57
2022/11/05 07:40:21;;;;;;;;;;;8.70;99.90;;;;;;5009279;28;20838;-57
2022/11/05 07:42:50;;;;;;;;;;;8.70;99.90;;;;;;5009409;28;20432;-57
2022/11/05 07:45:17;;;;;;;;;;;8.70;99.90;;;;;;5008458;28;19936;-57
2022/11/05 07:47:47;;;;;;;;;;;8.80;99.90;;;;;;5010054;28;19930;-57
2022/11/05 07:50:16;;;;;;;;;;;8.80;99.90;;;;;;5008771;28;19933;-57
2022/11/05 07:52:42;;;;;;;;;;;8.90;99.90;;;;;;5005339;28;20893;-57
2022/11/05 07:55:09;;;;;;;;;;;8.90;99.90;;;;;;5007426;28;22140;-57
2022/11/05 07:57:42;;;;;;;;;;;8.70;99.90;;;;;;5005006;28;19929;-57
2022/11/05 08:00:11;;;;;;;;;;;8.90;99.90;;;;;;5008653;28;20391;-57
2022/11/05 08:02:37;;;;;;;;;;;9.00;99.90;;;;;;5007104;28;19934;-57
2022/11/05 08:05:04;;;;;;;;;;;9.00;99.90;;;;;;5008212;28;19929;-57
2022/11/05 08:07:33;;;;;;;;;;;9.10;99.90;;;;;;5008840;28;20739;-61
2022/11/05 08:09:59;;;;;;;;;;;9.10;99.90;;;;;;5010107;28;20367;-57
2022/11/05 08:12:26;;;;;;;;;;;9.10;99.90;;;;;;5008997;28;19936;-57
2022/11/05 08:14:53;;;;;;;;;;;9.20;99.90;;;;;;5010361;28;21206;-57
2022/11/05 08:17:20;;;;;;;;;;;9.20;99.90;;;;;;5008163;28;19930;-57
2022/11/05 08:19:46;;;;;;;;;;;9.30;99.90;;;;;;5007430;28;19940;-57
2022/11/05 08:22:13;;;;;;;;;;;9.30;99.90;;;;;;5010187;28;19936;-57
2022/11/05 08:24:41;;;;;;;;;;;9.40;99.90;;;;;;5009604;28;20028;-57
2022/11/05 08:27:08;;;;;;;;;;;9.50;99.90;;;;;;5006245;28;19944;-57
2022/11/05 08:29:34;;;;;;;;;;;9.60;99.90;;;;;;5008707;28;19963;-57
2022/11/05 08:32:01;;;;;;;;;;;9.60;99.90;;;;;;5008328;28;19935;-57
2022/11/05 08:34:28;;;;;;;;;;;9.70;99.90;;;;;;5008263;28;19936;-57
2022/11/05 08:36:54;;;;;;;;;;;9.80;99.90;;;;;;5005967;28;20409;-57
2022/11/05 08:39:21;;;;;;;;;;;9.90;99.90;;;;;;4997836;28;20024;-57
2022/11/05 08:41:49;;;;;;;;;;;10.00;99.90;;;;;;5000134;28;19937;-57
2022/11/05 08:44:16;;;;;;;;;;;10.20;99.90;;;;;;5002289;28;19929;-57
2022/11/05 08:46:42;;;;;;;;;;;10.30;99.90;;;;;;5001433;28;20440;-57
2022/11/05 08:49:10;;;;;;;;;;;10.40;99.90;;;;;;5003350;28;19940;-57
2022/11/05 08:51:37;;;;;;;;;;;10.50;99.90;;;;;;5001949;28;20044;-57
2022/11/05 08:54:04;;;;;;;;;;;10.60;99.90;;;;;;5001480;28;19929;-57
2022/11/05 08:56:30;;;;;;;;;;;10.70;99.90;;;;;;5003786;28;19932;-57
2022/11/05 08:58:59;;;;;;;;;;;10.80;99.90;;;;;;5002334;28;20468;-57
2022/11/05 09:01:26;;;;;;;;;;;10.90;99.90;;;;;;5007138;28;19929;-58
2022/11/05 09:03:53;;;;;;;;;;;10.90;99.90;;;;;;5004984;28;20313;-57
2022/11/05 09:06:20;;;;;;;;;;;11.00;99.90;;;;;;5004106;28;19937;-57
2022/11/05 09:08:46;;;;;;;;;;;11.10;99.90;;;;;;5005305;28;19934;-58
2022/11/05 09:11:13;;;;;;;;;;;11.10;99.90;;;;;;5005694;28;19930;-57
2022/11/05 09:13:40;;;;;;;;;;;11.10;99.90;;;;;;5006168;28;19933;-57
2022/11/05 09:16:14;;;;;;;;;;;11.10;99.90;;;;;;5007196;28;19929;-57
2022/11/05 09:18:41;;;;;;;;;;;11.10;99.90;;;;;;5005905;28;20684;-57
2022/11/05 09:21:07;;;;;;;;;;;11.10;99.90;;;;;;5006627;28;19929;-57
2022/11/05 09:23:34;;;;;;;;;;;11.10;99.90;;;;;;5002626;28;19940;-57
2022/11/05 09:26:01;;;;;;;;;;;11.10;99.90;;;;;;5006611;28;19930;-57
2022/11/05 09:28:29;;;;;;;;;;;11.10;99.90;;;;;;5005045;28;20397;-57
2022/11/05 09:30:55;;;;;;;;;;;11.00;99.90;;;;;;5004632;28;19930;-58
2022/11/05 09:33:24;;;;;;;;;;;11.00;99.90;;;;;;5004952;28;20316;-57
2022/11/05 09:35:51;;;;;;;;;;;11.00;99.90;;;;;;5004052;28;19935;-57
2022/11/05 09:38:18;;;;;;;;;;;11.00;99.90;;;;;;5005690;28;19937;-57
2022/11/05 09:40:48;;;;;;;;;;;11.00;99.90;;;;;;5005728;28;20464;-57
2022/11/05 09:43:17;;;;;;;;;;;11.00;99.90;;;;;;5004832;28;20364;-57
2022/11/05 09:45:44;;;;;;;;;;;11.00;99.90;;;;;;5006030;28;20219;-57
2022/11/05 09:48:14;;;;;;;;;;;11.10;99.90;;;;;;5006569;28;19933;-57
2022/11/05 09:50:43;;;;;;;;;;;11.10;99.90;;;;;;5004530;28;19936;-57
2022/11/05 09:53:10;;;;;;;;;;;11.20;99.90;;;;;;4989527;28;21371;-57
2022/11/05 09:55:39;;;;;;;;;;;11.40;99.90;;;;;;4984397;28;19929;-57
2022/11/05 09:58:12;;;;;;;;;;;11.50;99.90;;;;;;4985341;28;19934;-57
2022/11/05 10:00:39;;;;;;;;;;;11.70;99.90;;;;;;4986574;28;19930;-57
2022/11/05 10:03:07;;;;;;;;;;;11.90;99.90;;;;;;4984320;28;19937;-57
2022/11/05 10:05:34;;;;;;;;;;;12.10;99.90;;;;;;4985674;28;19961;-58
2022/11/05 10:08:04;;;;;;;;;;;12.30;99.90;;;;;;4984182;28;19933;-58
2022/11/05 10:10:36;;;;;;;;;;;12.50;99.90;;;;;;4981176;28;19929;-58
2022/11/05 10:13:06;;;;;;;;;;;12.70;99.90;;;;;;4981935;28;19937;-57
2022/11/05 10:15:34;;;;;;;;;;;12.80;99.90;;;;;;4980855;28;19937;-57
2022/11/05 10:18:03;;;;;;;;;;;12.80;99.90;;;;;;4983164;28;19969;-57
2022/11/05 10:20:32;;;;;;;;;;;12.80;99.90;;;;;;4983650;28;20423;-57
2022/11/05 10:23:00;;;;;;;;;;;12.70;99.90;;;;;;4982808;28;20202;-57
2022/11/05 10:25:30;;;;;;;;;;;12.80;99.90;;;;;;4981560;28;20873;-58
2022/11/05 10:27:57;;;;;;;;;;;12.70;99.90;;;;;;4985436;28;20072;-57
2022/11/05 10:30:24;;;;;;;;;;;12.70;99.90;;;;;;4984940;28;20368;-57
2022/11/05 10:32:53;;;;;;;;;;;12.70;99.90;;;;;;4985260;28;19933;-58
2022/11/05 10:35:21;;;;;;;;;;;12.70;99.90;;;;;;4983413;28;20479;-57
2022/11/05 10:37:48;;;;;;;;;;;12.70;99.90;;;;;;4990308;28;19934;-58
2022/11/05 10:40:18;;;;;;;;;;;12.70;99.90;;;;;;4989364;28;20329;-57
2022/11/05 10:42:51;;;;;;;;;;;12.70;99.90;;;;;;4990770;28;19929;-57
2022/11/05 10:45:25;;;;;;;;;;;12.60;99.90;;;;;;4990241;28;19984;-57
2022/11/05 10:47:57;;;;;;;;;;;12.60;99.90;;;;;;4988359;28;19934;-57
2022/11/05 10:50:25;;;;;;;;;;;12.60;99.90;;;;;;4986963;28;19930;-57
2022/11/05 10:52:56;;;;;;;;;;;12.60;99.90;;;;;;4995362;28;19929;-57
2022/11/05 10:55:25;;;;;;;;;;;12.60;99.90;;;;;;4999696;28;19936;-57
2022/11/05 10:57:53;;;;;;;;;;;12.60;99.90;;;;;;5003175;28;20476;-57
2022/11/05 11:00:29;;;;;;;;;;;12.60;99.90;;;;;;5002543;28;19929;-57
2022/11/05 11:02:57;;;;;;;;;;;12.60;99.90;;;;;;5005015;28;21113;-57
2022/11/05 11:05:28;;;;;;;;;;;12.60;99.90;;;;;;5000535;28;19934;-57
2022/11/05 11:07:57;;;;;;;;;;;12.60;99.90;;;;;;5003032;28;21436;-57
2022/11/05 11:10:24;;;;;;;;;;;12.60;99.90;;;;;;4999267;28;19936;-57
2022/11/05 11:12:53;;;;;;;;;;;12.60;99.90;;;;;;5003883;28;20282;-57
2022/11/05 11:15:24;;;;;;;;;;;12.60;99.90;;;;;;5000656;28;20239;-57
2022/11/05 11:17:51;;;;;;;;;;;12.60;99.90;;;;;;5004536;28;20594;-57
2022/11/05 11:20:20;;;;;;;;;;;12.60;99.90;;;;;;4997639;28;20758;-57
2022/11/05 11:23:02;;;;;;;;;;;12.70;99.90;;;;;;5001580;28;19929;-57
2022/11/05 11:25:30;;;;;;;;;;;12.70;99.90;;;;;;4998823;28;21542;-57
2022/11/05 11:28:01;;;;;;;;;;;12.80;99.90;;;;;;5003785;28;19933;-57
2022/11/05 11:30:27;;;;;;;;;;;12.80;99.90;;;;;;5001733;28;19939;-57
2022/11/05 11:32:57;;;;;;;;;;;12.90;99.90;;;;;;5001974;28;19936;-57
2022/11/05 11:35:25;;;;;;;;;;;12.90;99.90;;;;;;5002028;28;19937;-57
2022/11/05 11:37:53;;;;;;;;;;;13.00;99.90;;;;;;5002110;28;19934;-57
2022/11/05 11:40:22;;;;;;;;;;;13.10;99.90;;;;;;5000591;28;20232;-57
2022/11/05 11:42:50;;;;;;;;;;;13.10;99.90;;;;;;5003665;28;19938;-57
2022/11/05 11:45:22;;;;;;;;;;;13.10;99.90;;;;;;5002170;28;20605;-57
2022/11/05 11:47:49;;;;;;;;;;;13.10;99.90;;;;;;5004575;28;21184;-57
2022/11/05 11:50:30;;;;;;;;;;;13.00;99.90;;;;;;5001499;28;19929;-61
2022/11/05 11:53:15;;;;;;;;;;;12.90;99.90;;;;;;4993474;28;20213;-61
2022/11/05 11:55:55;;;;;;;;;;;12.90;99.90;;;;;;4982202;28;19934;-56
2022/11/05 11:58:22;;;;;;;;;;;12.80;99.90;;;;;;4981712;28;21667;-57
2022/11/05 12:00:53;;;;;;;;;;;12.70;99.90;;;;;;4980886;28;19936;-57
2022/11/05 12:03:24;;;;;;;;;;;12.70;99.90;;;;;;4979385;28;20062;-57
2022/11/05 12:05:55;;;;;;;;;;;12.60;99.90;;;;;;4977984;28;19934;-57
2022/11/05 12:08:33;;;;;;;;;;;12.50;99.90;;;;;;4981352;28;20056;-56
2022/11/05 12:11:04;;;;;;;;;;;12.50;99.90;;;;;;4983723;28;20405;-57
2022/11/05 12:13:51;;;;;;;;;;;12.40;99.90;;;;;;4981852;28;19937;-57
2022/11/05 12:16:24;;;;;;;;;;;12.40;99.90;;;;;;4980313;28;19934;-57
2022/11/05 12:18:55;;;;;;;;;;;12.50;99.90;;;;;;4983242;28;19933;-57
2022/11/05 12:21:27;;;;;;;;;;;12.30;99.90;;;;;;4983189;28;19930;-57
2022/11/05 12:24:05;;;;;;;;;;;12.30;99.90;;;;;;4979512;28;19929;-57
2022/11/05 12:26:36;;;;;;;;;;;12.30;99.90;;;;;;4981841;28;19930;-57
2022/11/05 12:29:19;;;;;;;;;;;12.20;99.90;;;;;;4974665;28;19937;-57
2022/11/05 12:31:52;;;;;;;;;;;12.20;99.90;;;;;;4979845;28;19930;-57
2022/11/05 12:34:27;;;;;;;;;;;12.20;99.90;;;;;;4980576;28;19930;-57
2022/11/05 12:37:02;;;;;;;;;;;12.20;99.90;;;;;;4979893;28;20515;-57
2022/11/05 12:39:37;;;;;;;;;;;12.20;99.90;;;;;;4984237;28;19944;-57
2022/11/05 12:42:08;;;;;;;;;;;12.20;99.90;;;;;;4980667;28;19930;-57
2022/11/05 12:44:45;;;;;;;;;;;12.10;99.90;;;;;;4980344;28;19934;-57
2022/11/05 12:47:24;;;;;;;;;;;12.10;99.90;;;;;;4979879;28;19929;-57
2022/11/05 12:49:58;;;;;;;;;;;12.10;99.90;;;;;;4980820;28;20312;-57
2022/11/05 12:52:45;;;;;;;;;;;12.10;99.90;;;;;;4985686;28;20783;-57
2022/11/05 12:55:15;;;;;;;;;;;12.00;99.90;;;;;;4999792;28;20455;-57
2022/11/05 12:57:42;;;;;;;;;;;12.00;99.90;;;;;;5002541;28;20007;-57
2022/11/05 13:00:16;;;;;;;;;;;11.90;99.90;;;;;;5000483;28;19934;-57
2022/11/05 13:02:48;;;;;;;;;;;11.90;99.90;;;;;;5002970;28;20454;-57
2022/11/05 13:05:16;;;;;;;;;;;11.80;99.90;;;;;;5000134;28;20620;-57
2022/11/05 13:07:46;;;;;;;;;;;11.70;99.90;;;;;;5001760;28;20533;-58
2022/11/05 13:10:28;;;;;;;;;;;11.60;99.90;;;;;;5000374;28;20019;-57
2022/11/05 13:12:59;;;;;;;;;;;11.50;99.90;;;;;;5001652;28;19929;-56
2022/11/05 13:15:27;;;;;;;;;;;11.50;99.90;;;;;;5001040;28;19929;-57
2022/11/05 13:17:57;;;;;;;;;;;11.50;99.90;;;;;;5002046;28;20580;-57
2022/11/05 13:20:26;;;;;;;;;;;11.40;99.90;;;;;;5000525;28;19938;-56
2022/11/05 13:22:56;;;;;;;;;;;11.50;99.90;;;;;;5001194;28;19929;-57
2022/11/05 13:25:24;;;;;;;;;;;11.50;99.90;;;;;;4997390;28;19975;-57
2022/11/05 13:27:54;;;;;;;;;;;11.50;99.90;;;;;;5001056;28;20001;-57
2022/11/05 13:30:22;;;;;;;;;;;11.50;99.90;;;;;;5002053;28;19968;-57
2022/11/05 13:32:53;;;;;;;;;;;11.50;99.90;;;;;;5003378;28;21592;-57
2022/11/05 13:35:24;;;;;;;;;;;11.50;99.90;;;;;;4999735;28;19939;-57
2022/11/05 13:40:41;;;;;;;;;;;11.60;99.90;;;;;;4999906;28;19934;-57
2022/11/05 13:43:25;;;;;;;;;;;11.60;99.90;;;;;;5001087;28;19996;-57
2022/11/05 13:46:12;;;;;;;;;;;11.60;99.90;;;;;;4992132;28;19940;-57
2022/11/05 13:48:48;;;;;;;;;;;11.50;99.90;;;;;;5003980;28;19929;-57
2022/11/05 13:51:26;;;;;;;;;;;11.50;99.90;;;;;;5003140;28;19933;-57
2022/11/05 13:54:10;;;;;;;;;;;11.60;99.90;;;;;;5004244;28;19929;-57
2022/11/05 13:56:45;;;;;;;;;;;11.60;99.90;;;;;;5004314;28;20530;-57
2022/11/05 13:59:26;;;;;;;;;;;11.60;99.90;;;;;;5005187;28;20407;-57
2022/11/05 14:01:54;;;;;;;;;;;11.60;99.90;;;;;;5002271;28;19934;-57
2022/11/05 14:04:27;;;;;;;;;;;11.60;99.90;;;;;;5002644;28;20451;-58
2022/11/05 14:07:05;;;;;;;;;;;11.60;99.90;;;;;;5003124;28;20395;-58
2022/11/05 14:09:34;;;;;;;;;;;11.60;99.90;;;;;;5005141;28;19933;-58
2022/11/05 14:12:00;;;;;;;;;;;11.60;99.90;;;;;;5002066;28;19933;-58
2022/11/05 14:14:28;;;;;;;;;;;11.60;99.90;;;;;;5005082;28;19929;-58
2022/11/05 14:17:13;;;;;;;;;;;11.60;99.90;;;;;;5003631;28;20341;-58
2022/11/05 14:19:50;;;;;;;;;;;11.60;99.90;;;;;;5003965;28;20454;-58
2022/11/05 14:22:37;;;;;;;;;;;11.60;99.90;;;;;;5004013;28;19933;-58
2022/11/05 14:25:18;;;;;;;;;;;11.60;99.90;;;;;;5000993;28;19952;-58
2022/11/05 14:27:46;;;;;;;;;;;11.60;99.90;;;;;;4999345;28;20208;-58
2022/11/05 14:30:32;;;;;;;;;;;11.60;99.90;;;;;;5004318;28;19929;-58
2022/11/05 14:33:03;;;;;;;;;;;11.60;99.90;;;;;;5002747;28;19933;-58
2022/11/05 14:35:34;;;;;;;;;;;11.60;99.90;;;;;;5002731;28;19930;-58
2022/11/05 14:38:03;;;;;;;;;;;11.60;99.90;;;;;;5004338;28;19989;-58
2022/11/05 14:40:33;;;;;;;;;;;11.60;99.90;;;;;;5002187;28;20024;-58
2022/11/05 14:43:01;;;;;;;;;;;11.50;99.90;;;;;;5002344;28;20487;-58
2022/11/05 14:45:29;;;;;;;;;;;11.50;99.90;;;;;;5002093;28;19937;-58
2022/11/05 14:47:56;;;;;;;;;;;11.50;99.90;;;;;;5003022;28;19929;-58
2022/11/05 14:50:27;;;;;;;;;;;11.50;99.90;;;;;;4998654;28;19960;-58
2022/11/05 14:52:54;;;;;;;;;;;11.50;99.90;;;;;;4998578;28;19934;-58
2022/11/05 14:55:28;;;;;;;;;;;11.50;99.90;;;;;;4990048;28;20405;-58
2022/11/05 14:58:19;;;;;;;;;;;11.50;99.90;;;;;;4987825;28;19930;-58
2022/11/05 15:00:47;;;;;;;;;;;11.50;99.90;;;;;;4989036;28;20392;-59
2022/11/05 15:03:32;;;;;;;;;;;11.50;99.90;;;;;;4991468;28;20703;-58
2022/11/05 15:06:20;;;;;;;;;;;11.40;99.90;;;;;;4989478;28;19969;-58
2022/11/05 15:09:00;;;;;;;;;;;11.40;99.90;;;;;;4984425;28;21616;-58
2022/11/05 15:11:32;;;;;;;;;;;11.40;99.90;;;;;;4987457;28;19936;-58
2022/11/05 15:14:02;;;;;;;;;;;11.40;99.90;;;;;;4987981;28;19944;-61
2022/11/05 15:16:31;;;;;;;;;;;11.40;99.90;;;;;;4986301;28;20483;-61
2022/11/05 15:18:58;;;;;;;;;;;11.30;99.90;;;;;;4985279;28;19936;-61